Time;durP1;ratioP1;P1;durP2;ratioP2;P2;SDS_P1;SDS_P2;PMS_P1;PMS_P2;Temp;Humidity;BMP_temperature;BMP_pressure;BME280_temperature;BME280_humidity;BME280_pressure;Samples;Min_cycle;Max_cycle;Signal;HPM_P1;HPM_P2
2023/03/29 00:00:15;;;;;;;5.07;2.20;;;4.60;77.40;;;;;;4990741;28;20132;-85
2023/03/29 00:02:47;;;;;;;8.70;1.88;;;4.60;77.20;;;;;;4992792;28;20117;-84
2023/03/29 00:05:17;;;;;;;8.43;2.20;;;4.50;77.80;;;;;;4972226;28;20088;-84
2023/03/29 00:07:43;;;;;;;5.47;1.50;;;4.40;77.70;;;;;;4989815;28;20072;-84
2023/03/29 00:10:10;;;;;;;6.85;1.67;;;4.30;77.80;;;;;;4990811;28;20070;-84
2023/03/29 00:12:38;;;;;;;9.70;2.17;;;4.30;78.40;;;;;;4974296;28;20030;-84
2023/03/29 00:15:05;;;;;;;4.90;1.60;;;4.30;78.00;;;;;;4990073;28;20037;-84
2023/03/29 00:17:31;;;;;;;5.97;1.83;;;4.20;78.10;;;;;;4987941;28;20022;-83
2023/03/29 00:19:56;;;;;;;7.00;1.88;;;4.20;77.80;;;;;;4990997;28;20038;-84
2023/03/29 00:22:22;;;;;;;7.40;2.17;;;4.20;77.60;;;;;;4973382;28;20062;-84
2023/03/29 00:24:48;;;;;;;8.02;2.33;;;4.30;77.50;;;;;;4991282;28;20157;-84
2023/03/29 00:27:15;;;;;;;6.28;2.00;;;4.30;77.50;;;;;;4992782;28;20426;-84
2023/03/29 00:29:40;;;;;;;7.63;2.08;;;4.20;77.80;;;;;;4970252;28;20026;-84
2023/03/29 00:32:06;;;;;;;8.40;2.03;;;4.30;77.50;;;;;;4991536;28;20075;-84
2023/03/29 00:34:32;;;;;;;6.80;1.88;;;4.20;77.90;;;;;;4977722;28;20381;-84
2023/03/29 00:36:57;;;;;;;6.90;1.90;;;4.20;77.60;;;;;;4991578;28;20038;-84
2023/03/29 00:39:24;;;;;;;4.35;1.75;;;4.20;77.40;;;;;;4992050;28;20051;-84
2023/03/29 00:41:50;;;;;;;7.32;1.80;;;4.20;77.30;;;;;;4991513;28;20066;-83
2023/03/29 00:44:53;;;;;;;8.50;1.92;;;4.20;77.60;;;;;;4988559;28;20049;-84
2023/03/29 00:47:24;;;;;;;4.90;1.52;;;4.10;77.50;;;;;;4991265;28;20031;-84
2023/03/29 00:49:51;;;;;;;7.43;1.80;;;4.10;77.80;;;;;;4975616;28;20107;-84
2023/03/29 00:52:20;;;;;;;9.25;2.40;;;4.10;78.00;;;;;;4989811;28;20443;-83
2023/03/29 00:54:48;;;;;;;4.72;1.88;;;4.00;78.30;;;;;;4991637;28;20447;-86
2023/03/29 00:57:16;;;;;;;7.70;2.03;;;3.90;78.40;;;;;;4997060;28;20457;-84
2023/03/29 00:59:43;;;;;;;4.90;2.20;;;3.80;78.70;;;;;;4992820;28;20209;-84
2023/03/29 01:02:10;;;;;;;7.68;2.25;;;3.80;79.00;;;;;;4977409;28;20045;-84
2023/03/29 01:04:45;;;;;;;12.75;2.50;;;3.70;79.40;;;;;;4991821;28;20045;-84
2023/03/29 01:07:29;;;;;;;4.68;2.10;;;3.70;79.50;;;;;;4973893;28;20034;-84
2023/03/29 01:10:11;;;;;;;7.65;2.40;;;3.60;79.70;;;;;;4994806;28;20102;-85
2023/03/29 01:12:45;;;;;;;7.97;2.17;;;3.60;79.90;;;;;;5004358;28;20498;-84
2023/03/29 01:15:16;;;;;;;5.95;2.38;;;3.60;80.20;;;;;;4987245;28;20038;-85
2023/03/29 01:17:49;;;;;;;7.70;2.30;;;3.50;80.20;;;;;;4992067;28;20034;-85
2023/03/29 01:20:28;;;;;;;8.88;2.40;;;3.50;80.40;;;;;;4975571;28;20057;-85
2023/03/29 01:23:12;;;;;;;8.60;2.03;;;3.50;80.20;;;;;;4977026;28;20141;-85
2023/03/29 01:25:59;;;;;;;5.72;2.30;;;3.50;80.60;;;;;;4981350;28;20030;-84
2023/03/29 01:28:38;;;;;;;8.73;2.30;;;3.40;80.60;;;;;;4981583;28;20026;-84
2023/03/29 01:31:20;;;;;;;8.18;2.42;;;3.40;80.60;;;;;;4997487;28;20049;-86
2023/03/29 01:33:58;;;;;;;6.25;2.10;;;3.30;80.70;;;;;;4977924;28;20026;-85
2023/03/29 01:36:33;;;;;;;7.78;2.70;;;3.30;80.80;;;;;;4989175;28;20039;-85
2023/03/29 01:39:04;;;;;;;8.88;2.40;;;3.30;81.10;;;;;;4989068;28;20036;-85
2023/03/29 01:41:55;;;;;;;5.97;2.22;;;3.20;80.80;;;;;;4993499;28;20060;-85
2023/03/29 01:44:34;;;;;;;5.72;2.40;;;3.20;80.90;;;;;;4975053;28;20030;-85
2023/03/29 01:47:13;;;;;;;8.02;2.67;;;3.20;81.20;;;;;;4996995;28;20050;-85
2023/03/29 01:50:02;;;;;;;6.53;2.47;;;3.20;80.90;;;;;;4995683;28;20399;-85
2023/03/29 01:52:58;;;;;;;5.55;2.10;;;3.10;80.90;;;;;;4990388;28;20031;-85
2023/03/29 01:55:30;;;;;;;4.88;2.33;;;3.10;81.10;;;;;;4999478;28;20034;-85
2023/03/29 01:57:58;;;;;;;8.32;2.38;;;3.00;81.30;;;;;;5000191;28;20033;-84
2023/03/29 02:00:26;;;;;;;7.20;2.53;;;3.00;81.30;;;;;;4992686;28;20026;-85
2023/03/29 02:02:58;;;;;;;9.18;2.65;;;3.00;81.60;;;;;;4990875;28;20198;-85
2023/03/29 02:05:25;;;;;;;7.22;2.58;;;2.90;81.80;;;;;;4986963;28;20197;-85
2023/03/29 02:07:52;;;;;;;8.25;2.45;;;2.90;81.90;;;;;;4989928;28;20030;-85
2023/03/29 02:10:18;;;;;;;6.80;2.65;;;2.90;81.70;;;;;;4991587;28;20034;-84
2023/03/29 02:12:44;;;;;;;11.63;2.95;;;2.90;81.80;;;;;;4989560;28;20035;-85
2023/03/29 02:15:13;;;;;;;7.88;2.63;;;2.90;81.80;;;;;;4992127;28;20114;-85
2023/03/29 02:17:38;;;;;;;11.68;2.80;;;2.90;82.00;;;;;;4994462;28;20101;-86
2023/03/29 02:20:27;;;;;;;6.32;3.08;;;2.80;82.00;;;;;;4992745;28;20030;-85
2023/03/29 02:22:57;;;;;;;6.45;3.15;;;2.80;82.10;;;;;;5002453;28;20030;-85
2023/03/29 02:25:23;;;;;;;11.55;3.00;;;2.70;82.30;;;;;;5003606;28;20028;-84
2023/03/29 02:27:50;;;;;;;6.03;2.65;;;2.70;82.70;;;;;;4998026;28;20451;-86
2023/03/29 02:30:17;;;;;;;12.40;2.45;;;2.70;82.50;;;;;;4992886;28;20026;-85
2023/03/29 02:33:03;;;;;;;8.60;2.78;;;2.70;82.50;;;;;;5004627;28;20084;-84
2023/03/29 02:35:35;;;;;;;6.93;2.65;;;2.70;82.70;;;;;;4991195;28;20046;-84
2023/03/29 02:38:09;;;;;;;9.77;2.92;;;2.70;82.70;;;;;;5007513;28;20033;-85
2023/03/29 02:40:37;;;;;;;7.57;2.47;;;2.70;82.90;;;;;;5000123;28;20057;-84
2023/03/29 02:43:05;;;;;;;6.78;2.70;;;2.70;83.10;;;;;;4979486;28;20378;-85
2023/03/29 02:45:32;;;;;;;12.73;2.92;;;2.70;83.10;;;;;;4997736;28;20045;-86
2023/03/29 02:48:03;;;;;;;11.90;2.95;;;2.70;83.30;;;;;;5005532;28;20057;-86
2023/03/29 02:50:35;;;;;;;11.18;2.95;;;2.70;83.50;;;;;;4996947;28;20026;-85
2023/03/29 02:53:06;;;;;;;4.70;2.45;;;2.60;83.30;;;;;;4987919;28;20026;-85
2023/03/29 02:55:33;;;;;;;6.80;2.85;;;2.60;83.60;;;;;;4973072;28;20042;-85
2023/03/29 02:58:06;;;;;;;8.15;3.15;;;2.70;83.50;;;;;;4995021;28;20030;-85
2023/03/29 03:00:33;;;;;;;9.85;3.17;;;2.60;83.90;;;;;;4990704;28;20152;-85
2023/03/29 03:02:59;;;;;;;10.60;3.15;;;2.60;83.90;;;;;;4977345;28;20052;-85
2023/03/29 03:05:24;;;;;;;9.88;2.72;;;2.70;84.20;;;;;;4993814;28;20561;-85
2023/03/29 03:07:50;;;;;;;9.10;2.85;;;2.60;84.00;;;;;;4993456;28;20054;-85
2023/03/29 03:10:18;;;;;;;9.20;3.67;;;2.60;84.20;;;;;;4976338;28;20023;-85
2023/03/29 03:12:43;;;;;;;6.90;2.90;;;2.60;84.40;;;;;;4994415;28;20030;-85
2023/03/29 03:15:09;;;;;;;7.45;3.38;;;2.60;84.30;;;;;;4995979;28;20293;-86
2023/03/29 03:17:38;;;;;;;9.02;3.13;;;2.60;84.40;;;;;;4999264;28;20053;-85
2023/03/29 03:20:08;;;;;;;8.15;3.40;;;2.60;84.50;;;;;;4979925;28;20090;-85
2023/03/29 03:22:34;;;;;;;8.27;3.03;;;2.70;84.40;;;;;;4996117;28;20478;-85
2023/03/29 03:24:59;;;;;;;5.78;2.97;;;2.70;84.50;;;;;;4994936;28;20053;-85
2023/03/29 03:27:25;;;;;;;6.97;3.42;;;2.70;84.60;;;;;;4994279;28;20490;-85
2023/03/29 03:29:51;;;;;;;7.82;3.50;;;2.70;84.50;;;;;;4994084;28;20023;-85
2023/03/29 03:32:17;;;;;;;8.48;3.92;;;2.60;84.70;;;;;;4990752;28;20114;-85
2023/03/29 03:34:42;;;;;;;10.10;3.40;;;2.60;84.80;;;;;;4992899;28;20058;-85
2023/03/29 03:37:10;;;;;;;8.63;3.72;;;2.70;84.90;;;;;;4983856;28;20082;-85
2023/03/29 03:39:36;;;;;;;8.65;3.90;;;2.70;84.80;;;;;;4991522;28;20110;-85
2023/03/29 03:42:01;;;;;;;9.88;3.58;;;2.70;84.70;;;;;;4994466;28;20062;-86
2023/03/29 03:44:27;;;;;;;7.97;3.80;;;2.80;84.80;;;;;;4993112;28;20033;-85
2023/03/29 03:46:52;;;;;;;8.43;3.60;;;2.90;84.80;;;;;;4994168;28;20030;-84
2023/03/29 03:49:18;;;;;;;6.75;3.85;;;2.90;84.60;;;;;;4999332;28;20076;-85
2023/03/29 03:51:44;;;;;;;10.07;4.05;;;3.10;84.50;;;;;;4991286;28;20034;-85
2023/03/29 03:54:10;;;;;;;9.27;4.10;;;3.10;84.30;;;;;;4998358;28;20035;-85
2023/03/29 03:56:36;;;;;;;7.68;4.05;;;3.10;84.50;;;;;;4997964;28;20440;-86
2023/03/29 03:59:01;;;;;;;6.93;3.85;;;3.20;84.60;;;;;;4992759;28;20089;-85
2023/03/29 04:01:27;;;;;;;10.90;4.10;;;3.20;84.50;;;;;;4990585;28;20090;-85
2023/03/29 04:03:52;;;;;;;10.15;4.45;;;3.30;84.50;;;;;;4992176;28;20041;-85
2023/03/29 04:06:18;;;;;;;10.32;4.47;;;3.30;84.80;;;;;;4972580;28;20415;-85
2023/03/29 04:08:44;;;;;;;12.48;4.78;;;3.30;84.80;;;;;;4976726;28;20113;-86
2023/03/29 04:11:09;;;;;;;9.70;4.78;;;3.30;84.90;;;;;;4996632;28;20054;-86
2023/03/29 04:13:35;;;;;;;9.32;4.90;;;3.30;84.90;;;;;;4993845;28;20117;-85
2023/03/29 04:16:02;;;;;;;11.98;5.55;;;3.40;84.90;;;;;;4992448;28;20439;-85
2023/03/29 04:18:27;;;;;;;9.30;4.90;;;3.40;85.10;;;;;;4987928;28;20491;-86
2023/03/29 04:20:53;;;;;;;10.75;5.15;;;3.40;85.10;;;;;;4984350;28;20121;-86
2023/03/29 04:23:18;;;;;;;9.18;5.43;;;3.40;85.30;;;;;;4991092;28;20102;-84
2023/03/29 04:25:44;;;;;;;10.25;5.20;;;3.50;85.30;;;;;;4991460;28;20034;-84
2023/03/29 04:28:11;;;;;;;11.27;5.85;;;3.50;85.20;;;;;;4973398;28;20147;-84
2023/03/29 04:30:36;;;;;;;10.77;5.32;;;3.50;85.40;;;;;;4994199;28;20045;-82
2023/03/29 04:33:02;;;;;;;13.50;5.65;;;3.50;85.40;;;;;;4977244;28;20443;-82
2023/03/29 04:35:28;;;;;;;13.43;5.63;;;3.50;85.70;;;;;;4986326;28;20589;-82
2023/03/29 04:37:54;;;;;;;10.07;6.15;;;3.50;85.90;;;;;;4971195;28;20026;-82
2023/03/29 04:40:20;;;;;;;13.15;6.88;;;3.50;86.10;;;;;;4990414;28;20026;-82
2023/03/29 04:42:46;;;;;;;12.32;6.28;;;3.50;86.30;;;;;;4989921;28;20037;-82
2023/03/29 04:45:13;;;;;;;11.77;6.28;;;3.50;86.50;;;;;;4986261;28;20128;-82
2023/03/29 04:47:40;;;;;;;12.38;7.00;;;3.60;86.70;;;;;;4989998;28;20093;-83
2023/03/29 04:50:07;;;;;;;11.45;7.03;;;3.50;86.70;;;;;;4976537;28;20412;-78
2023/03/29 04:52:33;;;;;;;13.13;6.43;;;3.50;86.80;;;;;;4971038;28;20109;-82
2023/03/29 04:55:02;;;;;;;13.60;7.30;;;3.60;86.90;;;;;;4994482;28;20050;-83
2023/03/29 04:57:28;;;;;;;15.98;7.05;;;3.60;87.10;;;;;;4989770;28;20050;-83
2023/03/29 04:59:54;;;;;;;11.65;7.32;;;3.60;87.10;;;;;;4989747;28;20081;-84
2023/03/29 05:02:20;;;;;;;10.20;6.72;;;3.60;87.10;;;;;;4980646;28;20030;-81
2023/03/29 05:04:46;;;;;;;11.75;6.85;;;3.60;87.10;;;;;;4996838;28;20113;-83
2023/03/29 05:07:14;;;;;;;11.88;6.45;;;3.60;87.20;;;;;;4991600;28;20402;-83
2023/03/29 05:09:40;;;;;;;14.10;7.60;;;3.70;87.30;;;;;;4988978;28;20104;-83
2023/03/29 05:12:06;;;;;;;11.18;7.22;;;3.70;87.30;;;;;;4991904;28;20122;-82
2023/03/29 05:14:32;;;;;;;13.02;7.28;;;3.70;87.40;;;;;;4992318;28;20443;-83
2023/03/29 05:16:57;;;;;;;12.32;6.95;;;3.70;87.40;;;;;;4970419;28;20039;-82
2023/03/29 05:19:23;;;;;;;13.15;6.68;;;3.70;87.60;;;;;;4989264;28;20030;-83
2023/03/29 05:21:49;;;;;;;12.18;6.57;;;3.70;87.60;;;;;;4989407;28;20241;-81
2023/03/29 05:24:16;;;;;;;11.27;6.55;;;3.80;87.60;;;;;;4988656;28;20412;-83
2023/03/29 05:26:41;;;;;;;15.25;6.53;;;3.70;87.70;;;;;;4989810;28;20026;-82
2023/03/29 05:29:07;;;;;;;9.63;6.28;;;3.80;87.70;;;;;;4990709;28;20030;-79
2023/03/29 05:31:33;;;;;;;12.38;7.10;;;3.80;87.70;;;;;;4989583;28;20069;-82
2023/03/29 05:33:59;;;;;;;10.48;7.25;;;3.80;87.80;;;;;;4989539;28;20048;-83
2023/03/29 05:36:24;;;;;;;13.20;6.97;;;3.90;87.80;;;;;;4986835;28;20406;-82
2023/03/29 05:38:50;;;;;;;10.75;6.53;;;3.90;87.90;;;;;;4989021;28;20122;-83
2023/03/29 05:41:16;;;;;;;10.43;5.65;;;3.90;88.00;;;;;;4989350;28;20117;-81
2023/03/29 05:43:42;;;;;;;10.20;6.32;;;3.90;87.90;;;;;;4993962;28;20440;-82
2023/03/29 05:46:08;;;;;;;9.77;5.47;;;4.00;87.90;;;;;;4989065;28;20110;-82
2023/03/29 05:48:35;;;;;;;10.13;5.22;;;3.90;88.00;;;;;;4991754;28;20042;-81
2023/03/29 05:51:00;;;;;;;10.40;5.70;;;4.00;88.10;;;;;;4990154;28;20083;-82
2023/03/29 05:53:27;;;;;;;9.40;5.25;;;4.00;88.20;;;;;;4990660;28;20149;-80
2023/03/29 05:55:53;;;;;;;10.05;5.80;;;4.10;88.20;;;;;;4989900;28;20049;-80
2023/03/29 05:58:20;;;;;;;8.70;5.40;;;4.10;88.30;;;;;;4991212;28;20046;-82
2023/03/29 06:00:48;;;;;;;8.95;5.07;;;4.10;88.20;;;;;;4992175;28;20037;-81
2023/03/29 06:03:17;;;;;;;8.55;4.70;;;4.20;88.40;;;;;;4990407;28;20359;-83
2023/03/29 06:05:45;;;;;;;9.77;4.70;;;4.20;88.30;;;;;;4985951;28;20098;-83
2023/03/29 06:08:11;;;;;;;8.77;5.18;;;4.20;88.40;;;;;;4988773;28;20137;-81
2023/03/29 06:10:36;;;;;;;7.53;4.63;;;4.30;88.40;;;;;;4982079;28;20054;-83
2023/03/29 06:13:02;;;;;;;9.50;4.57;;;4.40;88.50;;;;;;4972629;28;20090;-83
2023/03/29 06:15:27;;;;;;;8.82;5.07;;;4.40;88.40;;;;;;4973352;28;20043;-83
2023/03/29 06:17:53;;;;;;;7.32;4.55;;;4.50;88.30;;;;;;4976631;28;20042;-84
2023/03/29 06:20:18;;;;;;;8.30;5.00;;;4.60;88.40;;;;;;4970976;28;20435;-84
2023/03/29 06:22:46;;;;;;;9.18;5.28;;;4.60;88.30;;;;;;4973209;28;20157;-84
2023/03/29 06:25:12;;;;;;;11.23;5.20;;;4.60;88.10;;;;;;4976829;28;20046;-86
2023/03/29 06:27:38;;;;;;;9.50;4.53;;;4.60;88.20;;;;;;4973673;28;20034;-83
2023/03/29 06:30:04;;;;;;;7.45;4.25;;;4.70;88.20;;;;;;4973878;28;20038;-83
2023/03/29 06:32:32;;;;;;;9.23;4.45;;;4.70;87.90;;;;;;4969839;28;20104;-84
2023/03/29 06:35:01;;;;;;;9.23;4.63;;;4.80;87.70;;;;;;4973306;28;20042;-83
2023/03/29 06:37:27;;;;;;;7.72;4.60;;;4.80;87.90;;;;;;4970948;28;20046;-83
2023/03/29 06:39:53;;;;;;;9.05;3.83;;;4.90;87.60;;;;;;4979778;28;20356;-85
2023/03/29 06:42:19;;;;;;;8.25;4.18;;;5.00;87.50;;;;;;4977304;28;20034;-84
2023/03/29 06:44:45;;;;;;;7.07;4.13;;;5.00;87.30;;;;;;4975092;28;20037;-83
2023/03/29 06:47:12;;;;;;;9.07;4.30;;;5.10;87.10;;;;;;4971830;28;20027;-82
2023/03/29 06:49:38;;;;;;;8.55;4.10;;;5.10;87.10;;;;;;4992485;28;20106;-82
2023/03/29 06:52:04;;;;;;;7.30;4.15;;;5.20;86.80;;;;;;4970763;28;20105;-84
2023/03/29 06:54:30;;;;;;;6.82;4.28;;;5.30;86.50;;;;;;4992514;28;20133;-81
2023/03/29 06:56:56;;;;;;;8.13;4.07;;;5.40;86.60;;;;;;4974655;28;20420;-81
2023/03/29 06:59:22;;;;;;;8.55;4.13;;;5.50;86.30;;;;;;4988384;28;20062;-82
2023/03/29 07:01:47;;;;;;;8.57;4.05;;;5.50;86.10;;;;;;4986645;28;20153;-81
2023/03/29 07:04:13;;;;;;;7.70;4.10;;;5.60;86.00;;;;;;4973596;28;20046;-81
2023/03/29 07:06:39;;;;;;;7.55;4.03;;;5.50;85.90;;;;;;4973870;28;20109;-81
2023/03/29 07:09:05;;;;;;;7.13;3.80;;;5.60;85.60;;;;;;4975145;28;20075;-82
2023/03/29 07:11:35;;;;;;;9.75;3.97;;;5.60;85.80;;;;;;4987507;28;20130;-83
2023/03/29 07:14:01;;;;;;;6.82;3.95;;;5.70;85.90;;;;;;4993370;28;20071;-82
2023/03/29 07:16:27;;;;;;;8.05;3.75;;;5.70;85.20;;;;;;5004280;28;20096;-81
2023/03/29 07:18:53;;;;;;;7.18;4.07;;;5.70;85.60;;;;;;5004056;28;20026;-79
2023/03/29 07:21:19;;;;;;;7.78;4.07;;;5.70;85.30;;;;;;4995801;28;20173;-82
2023/03/29 07:23:45;;;;;;;8.77;3.83;;;5.70;85.50;;;;;;4983141;28;20209;-82
2023/03/29 07:26:11;;;;;;;7.35;3.85;;;5.70;85.70;;;;;;4974643;28;20113;-82
2023/03/29 07:28:38;;;;;;;6.90;4.15;;;5.70;85.40;;;;;;4974021;28;20482;-80
2023/03/29 07:31:06;;;;;;;8.90;4.32;;;5.90;85.70;;;;;;4991615;28;20412;-83
2023/03/29 07:33:33;;;;;;;6.45;3.58;;;5.90;85.60;;;;;;4992753;28;20046;-83
2023/03/29 07:35:59;;;;;;;6.80;3.53;;;5.80;85.10;;;;;;4989447;28;20038;-82
2023/03/29 07:38:25;;;;;;;6.18;3.10;;;5.80;85.10;;;;;;4995211;28;20022;-80
2023/03/29 07:40:52;;;;;;;7.53;3.78;;;6.10;85.20;;;;;;4992296;28;20026;-82
2023/03/29 07:43:17;;;;;;;8.27;3.78;;;6.10;84.80;;;;;;4996798;28;20096;-81
2023/03/29 07:45:43;;;;;;;9.80;3.80;;;6.10;84.20;;;;;;4996106;28;20113;-82
2023/03/29 07:48:09;;;;;;;7.78;3.53;;;6.30;84.80;;;;;;4991769;28;20491;-84
2023/03/29 07:50:35;;;;;;;6.57;3.50;;;6.30;84.20;;;;;;4997277;28;20029;-82
2023/03/29 07:53:01;;;;;;;5.80;3.67;;;6.50;84.10;;;;;;4993821;28;20034;-83
2023/03/29 07:55:27;;;;;;;6.30;3.25;;;6.60;83.60;;;;;;4977266;28;20038;-80
2023/03/29 07:57:53;;;;;;;6.85;3.38;;;6.80;83.30;;;;;;4992510;28;20028;-82
2023/03/29 08:00:19;;;;;;;7.53;3.30;;;7.00;82.30;;;;;;4973108;28;20387;-82
2023/03/29 08:02:51;;;;;;;5.03;3.38;;;7.10;82.50;;;;;;4992132;28;20498;-81
2023/03/29 08:05:17;;;;;;;7.07;3.22;;;7.20;82.00;;;;;;4991087;28;20037;-84
2023/03/29 08:07:44;;;;;;;8.05;3.60;;;7.30;81.00;;;;;;4974565;28;20094;-83
2023/03/29 08:10:16;;;;;;;7.57;3.25;;;7.30;80.90;;;;;;4992604;28;20140;-81
2023/03/29 08:12:42;;;;;;;6.82;3.58;;;7.40;81.90;;;;;;4974065;28;20077;-82
2023/03/29 08:15:09;;;;;;;6.15;3.38;;;7.40;80.70;;;;;;4994889;28;20034;-81
2023/03/29 08:17:36;;;;;;;6.78;3.50;;;7.30;80.80;;;;;;4986974;28;20486;-82
2023/03/29 08:20:02;;;;;;;8.23;3.55;;;7.30;81.10;;;;;;4973554;28;20069;-83
2023/03/29 08:22:28;;;;;;;5.75;3.70;;;7.10;81.70;;;;;;4992666;28;20022;-83
2023/03/29 08:24:54;;;;;;;6.10;3.53;;;7.20;81.60;;;;;;4992740;28;20037;-83
2023/03/29 08:27:20;;;;;;;5.55;3.28;;;7.30;81.80;;;;;;4992612;28;20126;-81
2023/03/29 08:29:45;;;;;;;9.00;3.42;;;7.00;81.50;;;;;;4992374;28;20361;-82
2023/03/29 08:32:11;;;;;;;9.18;3.90;;;7.20;81.70;;;;;;4991858;28;20416;-82
2023/03/29 08:34:37;;;;;;;8.15;3.85;;;7.10;82.20;;;;;;4992076;28;20040;-82
2023/03/29 08:37:03;;;;;;;6.00;3.50;;;7.30;81.80;;;;;;4970692;28;20474;-81
2023/03/29 08:39:30;;;;;;;8.00;3.60;;;7.30;81.40;;;;;;4991045;28;20096;-82
2023/03/29 08:42:18;;;;;;;6.57;3.42;;;7.20;82.00;;;;;;4992012;28;20106;-82
2023/03/29 08:45:01;;;;;;;5.72;3.03;;;7.40;81.40;;;;;;4995645;28;20078;-83
2023/03/29 08:48:11;;;;;;;6.55;3.72;;;7.30;82.00;;;;;;4997441;28;20089;-82
2023/03/29 08:50:43;;;;;;;8.45;3.15;;;7.40;81.50;;;;;;4993497;28;20522;-83
2023/03/29 08:53:57;;;;;;;4.35;3.15;;;7.50;80.80;;;;;;4989834;28;20088;-84
2023/03/29 08:56:26;;;;;;;7.10;3.47;;;7.60;81.70;;;;;;4903685;29;20067;-83
2023/03/29 08:58:55;;;;;;;5.90;3.53;;;7.60;81.30;;;;;;4909736;29;20066;-84
2023/03/29 09:01:22;;;;;;;8.68;3.60;;;7.60;80.80;;;;;;4951204;28;20072;-83
2023/03/29 09:04:08;;;;;;;7.90;3.63;;;7.70;81.10;;;;;;4986338;28;20066;-84
2023/03/29 09:06:33;;;;;;;7.78;3.60;;;7.70;81.80;;;;;;4985974;28;20141;-84
2023/03/29 09:09:00;;;;;;;9.63;3.83;;;7.70;81.50;;;;;;4988914;28;20457;-84
2023/03/29 09:11:43;;;;;;;5.90;3.63;;;7.90;81.40;;;;;;4988443;28;20361;-83
2023/03/29 09:14:27;;;;;;;8.32;3.25;;;7.90;80.40;;;;;;4988980;28;20057;-83
2023/03/29 09:17:11;;;;;;;9.02;3.80;;;7.80;80.80;;;;;;4986106;28;20061;-83
2023/03/29 09:20:00;;;;;;;7.07;3.80;;;7.70;81.40;;;;;;4985943;28;20027;-81
2023/03/29 09:22:42;;;;;;;10.50;4.00;;;7.70;82.20;;;;;;4986304;28;20366;-84
2023/03/29 09:25:31;;;;;;;7.68;3.78;;;7.70;81.50;;;;;;4975065;28;20387;-82
2023/03/29 09:27:58;;;;;;;9.35;4.18;;;7.60;82.00;;;;;;4988703;28;20082;-84
2023/03/29 09:30:31;;;;;;;9.20;4.38;;;7.80;82.40;;;;;;4969967;28;20030;-84
2023/03/29 09:33:02;;;;;;;10.18;3.97;;;7.90;82.20;;;;;;4987891;28;20153;-84
2023/03/29 09:35:40;;;;;;;7.07;3.63;;;7.90;81.70;;;;;;4967734;28;20523;-83
2023/03/29 09:38:09;;;;;;;9.35;4.40;;;7.90;81.40;;;;;;4986809;28;20134;-83
2023/03/29 09:40:43;;;;;;;8.70;4.00;;;8.00;83.00;;;;;;4988222;28;20036;-84
2023/03/29 09:43:12;;;;;;;7.18;4.32;;;8.10;82.40;;;;;;4988322;28;20436;-84
2023/03/29 09:45:39;;;;;;;6.20;4.10;;;8.30;82.40;;;;;;4970073;28;20045;-83
2023/03/29 09:48:14;;;;;;;8.80;4.78;;;8.30;81.50;;;;;;4981053;28;20529;-82
2023/03/29 09:50:42;;;;;;;8.98;4.53;;;8.10;82.30;;;;;;4992648;28;20109;-83
2023/03/29 09:53:08;;;;;;;8.45;4.30;;;8.10;82.60;;;;;;4975573;28;20512;-79
2023/03/29 09:55:36;;;;;;;12.80;4.97;;;8.10;82.20;;;;;;4986505;28;20066;-84
2023/03/29 09:58:17;;;;;;;7.47;4.65;;;8.10;82.40;;;;;;4970366;28;20034;-83
2023/03/29 10:00:44;;;;;;;9.20;4.32;;;7.80;83.60;;;;;;4987420;28;20045;-82
2023/03/29 10:03:21;;;;;;;9.27;4.82;;;7.80;83.40;;;;;;4971205;28;20054;-83
2023/03/29 10:05:51;;;;;;;8.30;4.18;;;7.80;83.60;;;;;;4988176;28;20031;-81
2023/03/29 10:08:28;;;;;;;8.38;4.43;;;8.00;83.90;;;;;;4990352;28;20084;-84
2023/03/29 10:10:58;;;;;;;9.27;4.70;;;8.30;82.80;;;;;;4963819;28;20054;-82
2023/03/29 10:13:29;;;;;;;8.75;4.70;;;8.30;82.30;;;;;;4991400;28;20026;-82
2023/03/29 10:16:08;;;;;;;8.65;4.40;;;8.40;82.00;;;;;;4972258;28;20035;-83
2023/03/29 10:18:39;;;;;;;9.07;4.90;;;8.60;81.70;;;;;;4985686;28;20026;-81
2023/03/29 10:21:06;;;;;;;7.38;4.28;;;8.50;82.30;;;;;;4987466;28;20091;-83
2023/03/29 10:23:34;;;;;;;9.45;5.07;;;8.40;82.50;;;;;;4989363;28;20444;-83
2023/03/29 10:26:03;;;;;;;10.90;4.22;;;8.40;82.10;;;;;;4987742;28;20038;-83
2023/03/29 10:28:30;;;;;;;9.35;4.78;;;8.50;81.30;;;;;;4987615;28;20034;-82
2023/03/29 10:30:59;;;;;;;10.32;4.53;;;8.70;81.00;;;;;;4987124;28;20033;-84
2023/03/29 10:33:30;;;;;;;7.43;4.20;;;8.50;80.80;;;;;;4985988;28;20421;-82
2023/03/29 10:35:56;;;;;;;;;;;8.80;81.20;;;;;;4984672;28;20221;-83
2023/03/29 10:38:26;;;;;;;9.00;4.15;;;8.70;81.30;;;;;;4987319;28;19910;-81
2023/03/29 10:40:53;;;;;;;9.23;4.50;;;8.70;81.20;;;;;;4987471;28;20414;-82
2023/03/29 10:43:23;;;;;;;8.77;4.53;;;8.80;80.90;;;;;;4969976;28;20026;-83
2023/03/29 10:45:54;;;;;;;10.00;4.63;;;8.70;81.30;;;;;;4987308;28;20094;-83
2023/03/29 10:48:27;;;;;;;10.93;4.97;;;8.90;81.20;;;;;;4969148;28;20356;-83
2023/03/29 10:50:57;;;;;;;12.00;4.70;;;8.90;80.70;;;;;;4986922;28;20050;-82
2023/03/29 10:53:34;;;;;;;8.25;4.85;;;8.80;80.70;;;;;;4987602;28;20026;-84
2023/03/29 10:56:23;;;;;;;9.48;4.45;;;8.80;80.70;;;;;;4987426;28;20058;-83
2023/03/29 10:59:22;;;;;;;9.27;5.20;;;8.90;80.80;;;;;;4984847;28;20062;-84
2023/03/29 11:02:06;;;;;;;9.13;4.82;;;8.80;81.30;;;;;;4989981;28;20181;-82
2023/03/29 11:04:45;;;;;;;8.80;5.03;;;8.80;80.80;;;;;;4989543;28;20034;-84
2023/03/29 11:07:26;;;;;;;9.02;5.22;;;8.70;81.30;;;;;;4989358;28;20030;-83
2023/03/29 11:10:16;;;;;;;9.73;5.15;;;8.80;81.40;;;;;;4991014;28;20069;-85
2023/03/29 11:13:07;;;;;;;11.77;6.32;;;8.80;82.00;;;;;;4988697;28;20083;-81
2023/03/29 11:16:11;;;;;;;9.00;5.18;;;8.70;82.20;;;;;;4990082;28;20058;-83
2023/03/29 11:18:55;;;;;;;12.18;5.43;;;8.70;82.50;;;;;;4987177;28;20036;-82
2023/03/29 11:21:55;;;;;;;10.43;5.63;;;8.60;82.60;;;;;;4987514;28;20319;-82
2023/03/29 11:24:53;;;;;;;10.02;5.13;;;8.50;82.40;;;;;;4990718;28;20102;-82
2023/03/29 11:27:40;;;;;;;8.60;5.38;;;8.80;82.30;;;;;;4983972;28;20030;-82
2023/03/29 11:30:35;;;;;;;9.52;5.68;;;9.10;82.10;;;;;;4977306;28;20026;-80
2023/03/29 11:33:23;;;;;;;8.93;5.55;;;9.20;80.60;;;;;;4987140;28;20030;-82
2023/03/29 11:35:57;;;;;;;9.82;5.57;;;9.00;81.20;;;;;;4987648;28;20031;-83
2023/03/29 11:38:42;;;;;;;9.65;5.72;;;9.30;81.60;;;;;;4994537;28;20420;-81
2023/03/29 11:41:22;;;;;;;10.50;5.47;;;9.30;81.80;;;;;;4990031;28;20036;-81
2023/03/29 11:44:25;;;;;;;8.55;5.43;;;9.50;81.20;;;;;;4990222;28;20391;-83
2023/03/29 11:47:02;;;;;;;11.23;5.38;;;9.40;81.20;;;;;;4905538;29;20443;-82
2023/03/29 11:49:42;;;;;;;8.63;5.50;;;10.00;80.20;;;;;;4981199;28;20053;-82
2023/03/29 11:52:21;;;;;;;8.60;4.82;;;9.70;80.30;;;;;;4988281;28;20093;-82
2023/03/29 11:54:56;;;;;;;7.55;4.80;;;9.70;79.90;;;;;;4990702;28;20483;-81
2023/03/29 11:57:29;;;;;;;9.70;5.45;;;9.60;80.70;;;;;;4975616;28;20039;-83
2023/03/29 12:00:17;;;;;;;8.05;5.78;;;9.70;81.30;;;;;;4990378;28;20518;-81
2023/03/29 12:03:09;;;;;;;10.43;5.65;;;9.80;80.90;;;;;;4975231;28;20088;-81
2023/03/29 12:05:41;;;;;;;10.00;5.22;;;9.70;80.60;;;;;;4985303;28;20289;-82
2023/03/29 12:08:45;;;;;;;9.45;5.35;;;9.80;81.10;;;;;;4989679;28;20105;-82
2023/03/29 12:11:36;;;;;;;7.95;4.93;;;10.00;80.50;;;;;;4985540;28;20509;-81
2023/03/29 12:14:22;;;;;;;9.50;5.57;;;9.80;81.40;;;;;;4983399;28;20046;-83
2023/03/29 12:16:52;;;;;;;8.82;5.43;;;9.60;81.80;;;;;;4974197;28;20038;-82
2023/03/29 12:19:23;;;;;;;9.73;5.82;;;10.00;81.30;;;;;;4990004;28;20025;-81
2023/03/29 12:21:49;;;;;;;12.05;6.07;;;10.10;80.60;;;;;;4988923;28;20133;-83
2023/03/29 12:24:20;;;;;;;9.15;5.75;;;10.10;80.80;;;;;;4992103;28;20046;-82
2023/03/29 12:27:01;;;;;;;8.52;5.05;;;10.10;80.60;;;;;;4990085;28;20382;-83
2023/03/29 12:29:42;;;;;;;11.50;5.35;;;10.20;80.60;;;;;;4995387;28;20030;-81
2023/03/29 12:32:42;;;;;;;8.35;5.40;;;10.30;80.50;;;;;;4986748;28;20874;-82
2023/03/29 12:35:37;;;;;;;8.63;5.35;;;10.50;80.50;;;;;;4981299;28;20027;-79
2023/03/29 12:38:21;;;;;;;9.43;5.10;;;10.30;81.30;;;;;;4990598;28;20049;-81
2023/03/29 12:40:57;;;;;;;8.13;5.57;;;10.10;81.40;;;;;;4990288;28;20030;-83
2023/03/29 12:43:26;;;;;;;8.20;5.30;;;10.10;81.80;;;;;;4982460;28;20034;-83
2023/03/29 12:45:55;;;;;;;6.90;5.05;;;10.50;81.10;;;;;;4993333;28;20037;-84
2023/03/29 12:48:26;;;;;;;7.95;5.25;;;10.30;80.60;;;;;;4988275;28;20061;-83
2023/03/29 12:51:00;;;;;;;8.00;5.15;;;10.40;81.50;;;;;;4988694;28;20052;-83
2023/03/29 12:53:39;;;;;;;12.55;5.35;;;10.80;81.10;;;;;;4989534;28;20052;-81
2023/03/29 12:56:07;;;;;;;8.77;5.45;;;10.90;80.40;;;;;;4996347;28;20110;-83
2023/03/29 12:58:51;;;;;;;11.15;6.38;;;11.00;80.70;;;;;;4994068;28;20034;-83
2023/03/29 13:01:30;;;;;;;8.40;5.97;;;11.20;80.30;;;;;;4977685;28;20034;-80
2023/03/29 13:03:58;;;;;;;11.63;6.22;;;11.10;80.70;;;;;;4989033;28;20033;-83
2023/03/29 13:06:31;;;;;;;9.10;6.72;;;10.60;81.10;;;;;;4990751;28;20172;-83
2023/03/29 13:09:21;;;;;;;15.57;6.75;;;10.30;82.30;;;;;;4976556;28;20071;-82
2023/03/29 13:12:14;;;;;;;9.60;6.32;;;10.30;82.70;;;;;;4991939;28;20065;-79
2023/03/29 13:14:43;;;;;;;11.35;6.97;;;10.30;83.10;;;;;;4992406;28;20073;-84